Aviation Digital Data Service (ADDS)

Output produced by METARs form (1557 UTC 25 July 2014)
found at http://aviationweather.gov/adds/metars/
 
KSYR 251132Z 2512/2612 VRB03KT P6SM SKC 
     FM251400 29010KT P6SM SCT045 
     FM260000 24005KT P6SM FEW060 BKN200